createdAt,value
2019-05-30T00:01:49.751Z,101230.66
2019-05-30T00:04:21.195Z,101227.88
2019-05-30T00:06:52.605Z,101224.09
2019-05-30T00:09:24.506Z,101222.69
2019-05-30T00:11:56.667Z,101222.89
2019-05-30T00:14:28.219Z,101224.09
2019-05-30T00:17:00.837Z,101217.56
2019-05-30T00:19:34.232Z,101219.16
2019-05-30T00:22:05.825Z,101218.39
2019-05-30T00:24:37.200Z,101226.94
2019-05-30T00:27:08.577Z,101221.30
2019-05-30T00:29:39.997Z,101223.08
2019-05-30T00:32:11.796Z,101229.34
2019-05-30T00:34:43.194Z,101221.34
2019-05-30T00:37:14.557Z,101227.77
2019-05-30T00:39:46.094Z,101220.84
2019-05-30T00:42:17.491Z,101217.70
2019-05-30T00:44:49.024Z,101218.82
2019-05-30T00:47:20.363Z,101217.41
2019-05-30T00:49:51.767Z,101213.17
2019-05-30T00:52:23.053Z,101218.03
2019-05-30T00:54:54.464Z,101221.14
2019-05-30T00:57:25.804Z,101220.34
2019-05-30T00:59:58.682Z,101214.78
2019-05-30T01:02:30.951Z,101213.92
2019-05-30T01:05:03.488Z,101211.31
2019-05-30T01:07:36.055Z,101217.51
2019-05-30T01:10:09.714Z,101216.08
2019-05-30T01:12:41.175Z,101213.58
2019-05-30T01:15:13.376Z,101206.75
2019-05-30T01:17:44.685Z,101207.06
2019-05-30T01:20:16.666Z,101213.66
2019-05-30T01:22:48.025Z,101214.50
2019-05-30T01:25:19.493Z,101212.17
2019-05-30T01:27:50.787Z,101208.03
2019-05-30T01:30:22.117Z,101213.00
2019-05-30T01:32:53.566Z,101204.39
2019-05-30T01:35:24.994Z,101204.03
2019-05-30T01:37:57.514Z,101197.42
2019-05-30T01:40:28.981Z,101198.50
2019-05-30T01:43:00.263Z,101203.48
2019-05-30T01:45:31.598Z,101201.34
2019-05-30T01:48:04.550Z,101199.27
2019-05-30T01:50:36.286Z,101201.38
2019-05-30T01:53:08.831Z,101202.52
2019-05-30T01:55:40.270Z,101207.03
2019-05-30T01:58:12.631Z,101200.83
2019-05-30T02:00:43.949Z,101205.47
2019-05-30T02:03:16.025Z,101206.02
2019-05-30T02:05:47.519Z,101202.44
2019-05-30T02:08:19.001Z,101198.27
2019-05-30T02:10:50.434Z,101199.84
2019-05-30T02:13:21.948Z,101201.72
2019-05-30T02:15:53.285Z,101200.52
2019-05-30T02:18:24.637Z,101200.14
2019-05-30T02:20:56.079Z,101199.49
2019-05-30T02:23:27.370Z,101194.44
2019-05-30T02:26:00.048Z,101199.20
2019-05-30T02:28:32.609Z,101202.47
2019-05-30T02:31:05.251Z,101201.88
2019-05-30T02:33:36.962Z,101207.73
2019-05-30T02:36:10.443Z,101209.63
2019-05-30T02:38:41.351Z,101210.96
2019-05-30T02:41:12.774Z,101211.41
2019-05-30T02:43:44.966Z,101202.34
2019-05-30T02:46:16.308Z,101211.17
2019-05-30T02:48:58.710Z,101204.78
2019-05-30T02:51:20.687Z,101203.65
2019-05-30T02:53:53.150Z,101204.27
2019-05-30T02:56:24.678Z,101207.63
2019-05-30T02:58:56.028Z,101209.59
2019-05-30T03:01:27.302Z,101219.48
2019-05-30T03:03:58.649Z,101215.78
2019-05-30T03:06:30.263Z,101219.22
2019-05-30T03:09:03.843Z,101215.33
2019-05-30T03:11:35.239Z,101221.50
2019-05-30T03:14:12.052Z,101219.23
2019-05-30T03:16:40.781Z,101231.09
2019-05-30T03:19:12.715Z,101230.82
2019-05-30T03:21:44.324Z,101232.34
2019-05-30T03:24:15.758Z,101233.19
2019-05-30T03:26:47.912Z,101230.86
2019-05-30T03:29:19.484Z,101232.95
2019-05-30T03:31:51.882Z,101241.59
2019-05-30T03:34:28.556Z,101236.43
2019-05-30T03:36:56.479Z,101239.95
2019-05-30T03:39:30.742Z,101244.50
2019-05-30T03:42:02.025Z,101245.34
2019-05-30T03:44:33.461Z,101249.33
2019-05-30T03:47:08.587Z,101247.16
2019-05-30T03:49:43.869Z,101257.70
2019-05-30T03:52:17.503Z,101259.30
2019-05-30T03:54:50.393Z,101259.89
2019-05-30T03:57:31.972Z,101259.33
2019-05-30T04:00:23.105Z,101262.08
2019-05-30T04:03:06.417Z,101263.31
2019-05-30T04:05:45.026Z,101264.52
2019-05-30T04:08:19.711Z,101267.34
2019-05-30T04:10:54.701Z,101265.81
2019-05-30T04:13:41.558Z,101272.45
2019-05-30T04:16:13.595Z,101274.50
2019-05-30T04:18:45.989Z,101274.67
2019-05-30T04:21:20.939Z,101276.64
2019-05-30T04:23:50.400Z,101275.95
2019-05-30T04:26:21.861Z,101275.05
2019-05-30T04:28:53.203Z,101277.06
2019-05-30T04:31:24.529Z,101278.61
2019-05-30T04:33:55.878Z,101281.80
2019-05-30T04:36:27.277Z,101279.08
2019-05-30T04:38:58.525Z,101280.48
2019-05-30T04:41:29.976Z,101289.84
2019-05-30T04:44:01.422Z,101285.33
2019-05-30T04:46:32.821Z,101289.34
2019-05-30T04:49:04.292Z,101287.51
2019-05-30T04:51:36.679Z,101294.23
2019-05-30T04:54:08.056Z,101284.70
2019-05-30T04:56:39.358Z,101296.53
2019-05-30T04:59:11.035Z,101295.34
2019-05-30T05:01:42.935Z,101297.26
2019-05-30T05:04:15.512Z,101297.42
2019-05-30T05:06:47.042Z,101302.83
2019-05-30T05:09:18.747Z,101299.20
2019-05-30T05:11:51.482Z,101303.98
2019-05-30T05:14:22.890Z,101297.41
2019-05-30T05:16:54.298Z,101297.38
2019-05-30T05:19:26.663Z,101302.66
2019-05-30T05:21:58.168Z,101306.00
2019-05-30T05:24:29.490Z,101308.92
2019-05-30T05:27:01.468Z,101306.77
2019-05-30T05:29:34.458Z,101308.27
2019-05-30T05:32:06.169Z,101313.45
2019-05-30T05:34:37.509Z,101302.38
2019-05-30T05:37:09.461Z,101303.05
2019-05-30T05:39:40.861Z,101309.20
2019-05-30T05:42:12.293Z,101306.29
2019-05-30T05:44:43.669Z,101306.18
2019-05-30T05:47:16.301Z,101310.92
2019-05-30T05:49:47.894Z,101304.14
2019-05-30T05:52:19.179Z,101308.23
2019-05-30T05:54:50.654Z,101312.98
2019-05-30T05:57:22.965Z,101308.06
2019-05-30T05:59:54.405Z,101311.95
2019-05-30T06:02:25.779Z,101323.94
2019-05-30T06:04:57.065Z,101319.55
2019-05-30T06:07:29.974Z,101315.45
2019-05-30T06:10:01.229Z,101320.87
2019-05-30T06:12:33.883Z,101320.91
2019-05-30T06:15:07.484Z,101319.69
2019-05-30T06:17:39.984Z,101324.95
2019-05-30T06:20:13.209Z,101325.16
2019-05-30T06:22:44.734Z,101322.64
2019-05-30T06:25:18.668Z,101328.52
2019-05-30T06:27:49.658Z,101333.16
2019-05-30T06:30:22.351Z,101334.20
2019-05-30T06:32:57.051Z,101331.89
2019-05-30T06:35:36.003Z,101338.03
2019-05-30T06:38:12.824Z,101335.66
2019-05-30T06:40:57.690Z,101331.84
2019-05-30T08:17:37.810Z,101353.64
2019-05-30T08:20:10.604Z,101357.00
2019-05-30T08:22:42.030Z,101352.66
2019-05-30T08:25:13.643Z,101355.11
2019-05-30T08:27:44.966Z,101347.57
2019-05-30T08:30:17.188Z,101338.05
2019-05-30T08:32:48.827Z,101344.45
2019-05-30T08:35:20.724Z,101339.27
2019-05-30T08:37:52.082Z,101340.30
2019-05-30T08:40:23.531Z,101342.31
2019-05-30T08:42:55.055Z,101343.72
2019-05-30T08:45:26.624Z,101348.21
2019-05-30T08:47:58.047Z,101334.86
2019-05-30T08:50:30.222Z,101336.04
2019-05-30T08:53:01.617Z,101328.21
2019-05-30T08:55:34.340Z,101334.05
2019-05-30T08:58:06.018Z,101331.81
2019-05-30T09:00:37.337Z,101327.07
2019-05-30T09:03:09.889Z,101324.53
2019-05-30T09:05:57.230Z,101327.17
2019-05-30T09:08:14.130Z,101324.66
2019-05-30T09:10:46.484Z,101325.70
2019-05-30T09:13:17.833Z,101315.63
2019-05-30T09:15:52.989Z,101315.77
2019-05-30T09:18:24.895Z,101312.34
2019-05-30T09:20:56.587Z,101310.35
2019-05-30T09:23:28.174Z,101307.80
2019-05-30T09:25:59.536Z,101303.94
2019-05-30T09:28:30.932Z,101301.19
2019-05-30T09:31:02.349Z,101303.19
2019-05-30T09:33:33.735Z,101296.70
2019-05-30T09:36:13.301Z,101298.78
2019-05-30T09:38:40.273Z,101302.02
2019-05-30T09:41:15.556Z,101305.28
2019-05-30T09:43:48.179Z,101297.20
2019-05-30T09:46:19.892Z,101300.22
2019-05-30T09:48:51.876Z,101295.88
2019-05-30T09:51:23.410Z,101294.56
2019-05-30T09:53:54.952Z,101292.53
2019-05-30T09:56:26.544Z,101296.91
2019-05-30T09:58:58.002Z,101297.42
2019-05-30T10:01:29.672Z,101296.38
2019-05-30T10:04:01.042Z,101292.70
2019-05-30T10:06:32.625Z,101292.62
2019-05-30T10:09:05.876Z,101288.79
2019-05-30T10:11:37.394Z,101287.83
2019-05-30T10:14:10.387Z,101287.19
2019-05-30T10:16:42.318Z,101283.87
2019-05-30T10:19:15.406Z,101273.40
2019-05-30T10:21:47.169Z,101281.83
2019-05-30T10:24:18.605Z,101286.14
2019-05-30T10:26:51.090Z,101290.14
2019-05-30T10:29:22.429Z,101278.26
2019-05-30T10:31:53.838Z,101284.08
2019-05-30T10:34:25.315Z,101282.59
2019-05-30T10:36:56.979Z,101271.41
2019-05-30T10:39:28.490Z,101281.13
2019-05-30T10:41:59.738Z,101289.83
2019-05-30T10:44:31.465Z,101280.89
2019-05-30T10:47:02.837Z,101281.11
2019-05-30T10:49:37.314Z,101287.44
2019-05-30T10:52:08.842Z,101282.03
2019-05-30T10:54:41.533Z,101284.01
2019-05-30T10:57:13.126Z,101285.52
2019-05-30T10:59:45.958Z,101273.45
2019-05-30T11:02:17.901Z,101273.59
2019-05-30T11:04:50.503Z,101268.93
2019-05-30T11:07:55.126Z,101273.81
2019-05-30T11:10:39.682Z,101264.28
2019-05-30T11:13:17.149Z,101261.91
2019-05-30T11:15:49.867Z,101261.20
2019-05-30T11:18:21.778Z,101264.39
2019-05-30T11:20:54.048Z,101267.13
2019-05-30T11:23:25.891Z,101256.02
2019-05-30T11:25:58.831Z,101255.48
2019-05-30T11:28:32.015Z,101259.22
2019-05-30T11:31:04.793Z,101255.00
2019-05-30T11:33:36.655Z,101253.03
2019-05-30T11:36:08.285Z,101256.27
2019-05-30T11:38:39.606Z,101257.62
2019-05-30T11:41:11.008Z,101254.92
2019-05-30T11:43:43.514Z,101252.15
2019-05-30T11:46:14.853Z,101254.81
2019-05-30T11:48:46.440Z,101251.23
2019-05-30T11:51:17.874Z,101241.07
2019-05-30T11:53:49.787Z,101261.20
2019-05-30T11:56:21.622Z,101263.00
2019-05-30T11:58:53.968Z,101260.23
2019-05-30T12:01:26.151Z,101262.86
2019-05-30T12:03:58.918Z,101254.05
2019-05-30T12:06:33.593Z,101257.74
2019-05-30T12:09:08.539Z,101262.14
2019-05-30T12:11:40.236Z,101264.56
2019-05-30T12:14:11.791Z,101260.95
2019-05-30T12:16:43.767Z,101255.75
2019-05-30T12:19:16.077Z,101265.46
2019-05-30T12:21:47.753Z,101260.37
2019-05-30T12:24:19.235Z,101262.01
2019-05-30T12:26:51.882Z,101256.38
2019-05-30T12:29:23.394Z,101259.20
2019-05-30T12:31:58.433Z,101261.55
2019-05-30T12:34:28.639Z,101259.44
2019-05-30T12:37:00.561Z,101260.09
2019-05-30T12:39:34.709Z,101261.71
2019-05-30T12:42:06.289Z,101259.44
2019-05-30T12:44:37.994Z,101262.52
2019-05-30T12:47:09.873Z,101263.17
2019-05-30T12:49:43.042Z,101265.82
2019-05-30T12:52:14.769Z,101270.89
2019-05-30T12:54:46.153Z,101272.21
2019-05-30T12:57:17.708Z,101277.56
2019-05-30T12:59:52.377Z,101274.02
2019-05-30T13:02:29.565Z,101268.56
2019-05-30T13:05:01.056Z,101267.96
2019-05-30T13:07:33.609Z,101278.84
2019-05-30T13:10:09.266Z,101273.25
2019-05-30T13:12:41.062Z,101284.40
2019-05-30T13:15:12.741Z,101286.24
2019-05-30T13:17:44.231Z,101287.21
2019-05-30T13:20:17.572Z,101280.42
2019-05-30T13:22:49.119Z,101279.48
2019-05-30T13:25:22.955Z,101273.91
2019-05-30T13:27:55.721Z,101272.48
2019-05-30T13:30:27.476Z,101274.23
2019-05-30T13:33:00.675Z,101280.82
2019-05-30T13:35:33.755Z,101281.84
2019-05-30T13:38:05.832Z,101282.26
2019-05-30T13:40:37.693Z,101273.03
2019-05-30T13:43:10.793Z,101277.14
2019-05-30T13:45:42.620Z,101273.53
2019-05-30T13:48:14.265Z,101284.58
2019-05-30T13:50:46.907Z,101279.40
2019-05-30T13:53:18.694Z,101281.20
2019-05-30T13:55:50.628Z,101286.69
2019-05-30T13:58:22.434Z,101291.31
2019-05-30T14:00:55.186Z,101289.88
2019-05-30T14:03:27.417Z,101288.22
2019-05-30T14:05:59.940Z,101286.21
2019-05-30T14:08:41.253Z,101284.28
2019-05-30T14:11:06.657Z,101282.00
2019-05-30T14:13:41.088Z,101272.67
2019-05-30T14:16:17.681Z,101276.91
2019-05-30T14:19:11.171Z,101275.17
2019-05-30T14:21:57.308Z,101265.86
2019-05-30T14:24:39.112Z,101257.83
2019-05-30T14:27:28.239Z,101268.47
2019-05-30T14:30:13.121Z,101265.28
2019-05-30T14:33:02.105Z,101268.28
2019-05-30T14:36:07.139Z,101268.63
2019-05-30T14:38:58.725Z,101275.98
2019-05-30T14:41:36.231Z,101269.11
2019-05-30T14:44:54.837Z,101266.91
2019-05-30T14:47:59.793Z,101264.73
2019-05-30T14:53:52.891Z,101271.70
2019-05-30T14:59:31.148Z,101259.86
2019-05-30T15:10:24.805Z,101278.06
2019-05-30T15:18:11.291Z,101275.90
2019-05-30T15:20:59.848Z,101267.68
2019-05-30T15:27:00.671Z,101274.23
2019-05-30T15:29:49.333Z,101260.27
2019-05-30T15:32:17.907Z,101258.47
2019-05-30T18:56:37.013Z,101279.75
2019-05-30T18:59:13.184Z,101280.55
2019-05-30T19:01:44.885Z,101284.07
2019-05-30T19:04:16.854Z,101278.96
2019-05-30T19:06:48.866Z,101285.22
2019-05-30T19:09:20.892Z,101291.11
2019-05-30T19:11:53.508Z,101288.59
2019-05-30T19:14:29.363Z,101285.01
2019-05-30T19:17:07.367Z,101291.02
2019-05-30T19:19:40.408Z,101294.31
2019-05-30T19:22:14.613Z,101293.92
2019-05-30T19:24:49.825Z,101297.91
2019-05-30T19:27:38.611Z,101303.40
2019-05-30T19:30:15.287Z,101306.08
2019-05-30T19:32:54.205Z,101304.09
2019-05-30T19:35:26.997Z,101306.13
2019-05-30T19:38:25.056Z,101315.16
2019-05-30T19:41:17.960Z,101321.29
2019-05-30T19:44:01.888Z,101313.46
2019-05-30T19:46:58.876Z,101325.64
2019-05-30T19:53:34.931Z,101322.08
2019-05-30T20:03:08.920Z,101337.77
2019-05-30T20:06:32.503Z,101338.38
2019-05-30T20:09:26.587Z,101337.97
2019-05-30T20:12:08.980Z,101339.88
2019-05-30T20:14:50.409Z,101341.67
2019-05-30T20:17:39.626Z,101340.74
2019-05-30T20:20:17.736Z,101344.38
2019-05-30T20:22:59.288Z,101348.42
2019-05-30T20:25:34.537Z,101340.59
2019-05-30T20:28:32.663Z,101349.48
2019-05-30T20:31:30.799Z,101346.41
2019-05-30T20:34:09.566Z,101345.92
2019-05-30T20:36:44.729Z,101344.09
2019-05-30T20:39:24.824Z,101352.56
2019-05-30T20:42:19.352Z,101353.91
2019-05-30T20:44:49.131Z,101346.84
2019-05-30T20:47:29.412Z,101352.20
2019-05-30T20:53:09.924Z,101344.63
2019-05-30T20:58:51.867Z,101355.33
2019-05-30T21:01:32.038Z,101359.31
2019-05-30T21:04:24.376Z,101361.55
2019-05-30T21:06:59.190Z,101359.77
2019-05-30T21:09:39.907Z,101361.11
2019-05-30T21:15:22.451Z,101374.89
2019-05-30T21:17:54.862Z,101368.66
2019-05-30T21:20:29.595Z,101369.11
2019-05-30T21:23:20.201Z,101365.55
2019-05-30T21:25:52.631Z,101371.78
2019-05-30T21:28:34.876Z,101373.11
2019-05-30T21:31:12.761Z,101371.34
2019-05-30T21:33:55.827Z,101372.67
2019-05-30T21:36:32.742Z,101369.56
2019-05-30T21:39:27.751Z,101369.09
2019-05-30T21:42:01.527Z,101366.44
2019-05-30T21:44:36.636Z,101365.98
2019-05-30T21:47:21.806Z,101368.63
2019-05-30T21:50:14.585Z,101366.88
2019-05-30T21:53:09.263Z,101367.33
2019-05-30T21:55:51.999Z,101361.98
2019-05-30T21:58:31.330Z,101366.89
2019-05-30T22:01:22.413Z,101365.10
2019-05-30T22:03:54.535Z,101370.45
2019-05-30T22:06:30.809Z,101365.08
2019-05-30T22:12:41.464Z,101362.39
2019-05-30T22:15:49.768Z,101366.37
2019-05-30T22:19:35.903Z,101364.58
2019-05-30T22:29:03.288Z,101360.45
2019-05-30T22:35:55.239Z,101359.95
2019-05-30T22:38:52.777Z,101354.98
2019-05-30T22:41:34.002Z,101361.54
2019-05-30T22:44:24.074Z,101365.45
2019-05-30T22:47:23.129Z,101362.00
2019-05-30T22:50:23.207Z,101359.02
2019-05-30T22:53:12.082Z,101356.70
2019-05-30T22:56:10.170Z,101360.73
2019-05-30T22:59:13.186Z,101354.91
2019-05-30T23:01:57.668Z,101355.80
2019-05-30T23:04:57.875Z,101360.61
2019-05-30T23:07:53.488Z,101357.53
2019-05-30T23:10:33.320Z,101350.86
2019-05-30T23:13:18.490Z,101355.73
2019-05-30T23:19:24.117Z,101346.91
2019-05-30T23:23:16.005Z,101351.38
2019-05-30T23:25:01.305Z,101349.12
2019-05-30T23:28:10.235Z,101352.19
2019-05-30T23:30:43.501Z,101351.77
2019-05-30T23:33:27.588Z,101352.22
2019-05-30T23:36:48.436Z,101351.42
2019-05-30T23:39:06.296Z,101354.09
2019-05-30T23:41:48.882Z,101349.24
2019-05-30T23:44:29.443Z,101351.87
2019-05-30T23:47:26.532Z,101352.83
2019-05-30T23:53:07.215Z,101354.68
2019-05-30T23:55:41.047Z,101346.81
2019-05-30T23:58:13.169Z,101340.14
